Jellicoe, Canada
Current Conditions -  °F | °C
As of 11:00 PM on Sunday 23 Nov 2014 (Local Time) from CYGQ Reporting Station
Freezing Drizzle Freezing Drizzle  
Wind Chill: 11°   Ceiling: 400
Heat Index: 21°   Visibility: 1.5mi
Dew Point: 21°   Wind: 9mph
Humidity: 100%   Direction: 50°NE
Pressure: 29.41"   Gusts: NA
Location:  49.68°N, 87.52°W
Report Text: CYGQ 240400Z 05008KT 1 1/2SM -FZDZ BR OVC004 M06/M06 A2941 RMKFG2ST6 SLP980
Loading
Personal Weather Stations






























Interactive Weather Map New forecast layout! Learn more

10-Day Weather Forecast

Advertisements
Track Severe Weather on mobile